createdAt,value
2023-03-21T00:34:15.223Z,956.37
2023-03-21T00:34:27.019Z,956.07
2023-03-21T00:35:53.672Z,956.06
2023-03-21T00:36:20.204Z,956.07
2023-03-21T00:37:20.174Z,956.07
2023-03-21T00:38:20.188Z,956.04
2023-03-21T00:39:20.212Z,956.05
2023-03-21T00:40:28.004Z,956.03
2023-03-21T00:41:35.114Z,956.01
2023-03-21T00:42:20.234Z,955.98
2023-03-21T00:43:20.245Z,955.96
2023-03-21T00:44:20.278Z,955.96
2023-03-21T00:45:20.276Z,955.93
2023-03-21T00:46:21.759Z,955.91
2023-03-21T00:47:20.342Z,955.94
2023-03-21T00:48:20.323Z,955.93
2023-03-21T00:49:20.319Z,955.94
2023-03-21T00:50:20.322Z,955.95
2023-03-21T00:51:20.317Z,955.96
2023-03-21T00:52:34.154Z,955.95
2023-03-21T00:53:20.356Z,955.95
2023-03-21T00:54:20.406Z,955.91
2023-03-21T00:55:20.394Z,955.90
2023-03-21T00:56:20.385Z,955.89
2023-03-21T00:57:29.330Z,955.92
2023-03-21T00:58:20.424Z,955.85
2023-03-21T00:59:20.459Z,955.86
2023-03-21T01:00:20.438Z,955.85
2023-03-21T01:01:20.470Z,955.82
2023-03-21T01:02:20.530Z,955.83
2023-03-21T01:03:24.907Z,955.81
2023-03-21T01:04:20.516Z,955.80
2023-03-21T01:05:20.539Z,955.82
2023-03-21T01:06:20.528Z,955.81
2023-03-21T01:07:20.580Z,955.81
2023-03-21T01:08:26.835Z,955.83
2023-03-21T01:09:20.579Z,955.80
2023-03-21T01:10:20.601Z,955.83
2023-03-21T01:11:20.603Z,955.82
2023-03-21T01:12:20.621Z,955.80
2023-03-21T01:13:20.642Z,955.82
2023-03-21T01:14:23.522Z,955.80
2023-03-21T01:15:20.669Z,955.80
2023-03-21T01:16:20.720Z,955.79
2023-03-21T01:17:20.712Z,955.75
2023-03-21T01:18:20.735Z,955.79
2023-03-21T01:19:27.649Z,955.79
2023-03-21T01:20:20.769Z,955.75
2023-03-21T01:21:20.857Z,955.77
2023-03-21T01:22:20.789Z,955.75
2023-03-21T01:23:20.805Z,955.71
2023-03-21T01:24:20.821Z,955.75
2023-03-21T01:25:22.589Z,955.72
2023-03-21T01:26:20.846Z,955.73
2023-03-21T01:27:20.900Z,955.76
2023-03-21T01:28:20.870Z,955.74
2023-03-21T01:29:20.887Z,955.71
2023-03-21T01:30:23.991Z,955.72
2023-03-21T01:31:20.983Z,955.71
2023-03-21T01:32:20.922Z,955.67
2023-03-21T01:33:20.935Z,955.69
2023-03-21T01:34:20.954Z,955.64
2023-03-21T01:35:20.979Z,955.66
2023-03-21T01:36:23.175Z,955.66
2023-03-21T01:37:21.005Z,955.64
2023-03-21T01:38:21.011Z,955.62
2023-03-21T01:39:21.046Z,955.62
2023-03-21T01:40:21.039Z,955.60
2023-03-21T01:41:21.938Z,955.60
2023-03-21T01:42:21.086Z,955.57
2023-03-21T01:43:21.102Z,955.56
2023-03-21T01:44:21.110Z,955.57
2023-03-21T01:45:21.122Z,955.54
2023-03-21T01:46:21.529Z,955.58
2023-03-21T01:47:21.156Z,955.57
2023-03-21T01:48:21.166Z,955.60
2023-03-21T01:49:21.174Z,955.57
2023-03-21T01:50:21.192Z,955.55
2023-03-21T01:51:21.233Z,955.56
2023-03-21T01:52:35.420Z,955.52
2023-03-21T01:53:21.274Z,955.51
2023-03-21T01:54:21.276Z,955.52
2023-03-21T01:55:21.328Z,955.48
2023-03-21T01:56:21.317Z,955.50
2023-03-21T01:57:21.334Z,955.48
2023-03-21T01:58:21.349Z,955.45
2023-03-21T01:59:21.373Z,955.40
2023-03-21T02:00:21.402Z,955.38
2023-03-21T02:01:21.473Z,955.36
2023-03-21T02:02:21.420Z,955.34
2023-03-21T02:03:35.036Z,955.34
2023-03-21T02:04:21.473Z,955.34
2023-03-21T02:05:21.504Z,955.31
2023-03-21T02:06:21.492Z,955.32
2023-03-21T02:07:21.521Z,955.29
2023-03-21T02:08:25.857Z,955.32
2023-03-21T02:09:21.566Z,955.30
2023-03-21T02:10:21.594Z,955.27
2023-03-21T02:11:21.600Z,955.34
2023-03-21T02:12:21.627Z,955.34
2023-03-21T02:13:21.612Z,955.32
2023-03-21T02:14:28.880Z,955.33
2023-03-21T02:15:21.637Z,955.31
2023-03-21T02:16:21.760Z,955.35
2023-03-21T02:17:21.684Z,955.36
2023-03-21T02:18:21.693Z,955.37
2023-03-21T02:19:29.617Z,955.38
2023-03-21T02:20:21.719Z,955.41
2023-03-21T02:21:21.720Z,955.38
2023-03-21T02:22:21.731Z,955.37
2023-03-21T02:23:21.782Z,955.38
2023-03-21T02:24:21.803Z,955.37
2023-03-21T02:25:22.471Z,955.35
2023-03-21T02:26:23.382Z,955.35
2023-03-21T02:27:21.825Z,955.36
2023-03-21T02:28:21.885Z,955.35
2023-03-21T02:29:21.855Z,955.33
2023-03-21T02:30:29.375Z,955.33
2023-03-21T02:31:21.947Z,955.35
2023-03-21T02:32:34.860Z,955.37
2023-03-21T02:33:21.944Z,955.37
2023-03-21T02:34:21.941Z,955.39
2023-03-21T02:35:21.953Z,955.39
2023-03-21T02:36:22.009Z,955.43
2023-03-21T02:37:28.924Z,955.46
2023-03-21T02:38:21.993Z,955.48
2023-03-21T02:39:21.984Z,955.45
2023-03-21T02:40:21.994Z,955.47
2023-03-21T02:41:22.387Z,955.45
2023-03-21T02:42:22.033Z,955.46
2023-03-21T02:43:23.756Z,955.43
2023-03-21T02:44:22.068Z,955.41
2023-03-21T02:45:22.076Z,955.44
2023-03-21T02:46:24.381Z,955.43
2023-03-21T02:47:22.146Z,955.46
2023-03-21T02:48:29.225Z,955.43
2023-03-21T02:49:22.149Z,955.40
2023-03-21T02:50:22.154Z,955.39
2023-03-21T02:51:22.181Z,955.44
2023-03-21T02:52:37.422Z,955.41
2023-03-21T02:53:22.193Z,955.40
2023-03-21T02:54:32.261Z,955.39
2023-03-21T02:55:22.249Z,955.40
2023-03-21T02:56:22.220Z,955.40
2023-03-21T02:57:25.357Z,955.39
2023-03-21T02:58:22.246Z,955.41
2023-03-21T02:59:22.280Z,955.42
2023-03-21T03:00:22.264Z,955.40
2023-03-21T03:01:22.293Z,955.43
2023-03-21T03:02:22.297Z,955.41
2023-03-21T03:03:33.655Z,955.39
2023-03-21T03:04:22.372Z,955.39
2023-03-21T03:05:22.416Z,955.34
2023-03-21T03:06:22.361Z,955.38
2023-03-21T03:07:22.370Z,955.39
2023-03-21T03:08:35.762Z,955.36
2023-03-21T03:09:22.392Z,955.35
2023-03-21T03:10:22.374Z,955.41
2023-03-21T03:11:22.397Z,955.39
2023-03-21T03:12:22.448Z,955.41
2023-03-21T03:13:22.442Z,955.40
2023-03-21T03:14:44.318Z,955.42
2023-03-21T03:15:22.465Z,955.42
2023-03-21T03:16:22.484Z,955.40
2023-03-21T03:17:22.503Z,955.40
2023-03-21T03:18:22.481Z,955.40
2023-03-21T03:19:22.500Z,955.36
2023-03-21T03:20:22.491Z,955.37
2023-03-21T03:21:22.524Z,955.30
2023-03-21T03:22:22.545Z,955.34
2023-03-21T03:23:22.569Z,955.31
2023-03-21T03:24:22.565Z,955.34
2023-03-21T03:25:35.768Z,955.33
2023-03-21T03:26:22.625Z,955.33
2023-03-21T03:27:22.627Z,955.33
2023-03-21T03:28:22.633Z,955.35
2023-03-21T03:29:22.662Z,955.36
2023-03-21T03:30:25.511Z,955.35
2023-03-21T03:31:22.797Z,955.34
2023-03-21T03:32:22.704Z,955.29
2023-03-21T03:33:22.727Z,955.35
2023-03-21T03:34:22.732Z,955.32
2023-03-21T03:35:22.749Z,955.33
2023-03-21T03:36:31.509Z,955.30
2023-03-21T03:37:22.790Z,955.29
2023-03-21T03:38:22.788Z,955.33
2023-03-21T03:39:22.800Z,955.30
2023-03-21T03:40:22.847Z,955.29
2023-03-21T03:41:22.851Z,955.26
2023-03-21T03:42:28.398Z,955.30
2023-03-21T03:43:22.851Z,955.29
2023-03-21T03:44:22.885Z,955.30
2023-03-21T03:45:23.001Z,955.29
2023-03-21T03:46:22.968Z,955.26
2023-03-21T03:47:32.202Z,955.26
2023-03-21T03:48:22.999Z,955.24
2023-03-21T03:49:22.935Z,955.27
2023-03-21T03:50:22.955Z,955.27
2023-03-21T03:51:22.948Z,955.25
2023-03-21T03:52:22.948Z,955.22
2023-03-21T03:53:23.204Z,955.22
2023-03-21T03:54:22.960Z,955.24
2023-03-21T03:55:22.973Z,955.21
2023-03-21T03:56:22.999Z,955.23
2023-03-21T03:57:23.748Z,955.26
2023-03-21T03:58:25.981Z,955.21
2023-03-21T03:59:23.226Z,955.24
2023-03-21T04:00:23.046Z,955.22
2023-03-21T04:01:23.054Z,955.24
2023-03-21T04:02:23.155Z,955.19
2023-03-21T04:03:23.201Z,955.22
2023-03-21T04:04:23.187Z,955.21
2023-03-21T04:05:23.119Z,955.25
2023-03-21T04:06:23.138Z,955.22
2023-03-21T04:07:23.118Z,955.25
2023-03-21T04:08:23.170Z,955.23
2023-03-21T04:09:34.075Z,955.24
2023-03-21T04:10:23.172Z,955.23
2023-03-21T04:11:23.170Z,955.23
2023-03-21T04:12:23.197Z,955.21
2023-03-21T04:13:23.218Z,955.22
2023-03-21T04:14:23.744Z,955.18
2023-03-21T04:15:23.272Z,955.21
2023-03-21T04:16:23.592Z,955.26
2023-03-21T04:17:23.248Z,955.22
2023-03-21T04:18:23.266Z,955.23
2023-03-21T04:19:23.320Z,955.28
2023-03-21T04:20:34.203Z,955.30
2023-03-21T04:21:23.298Z,955.26
2023-03-21T04:22:23.325Z,955.24
2023-03-21T04:23:23.330Z,955.27
2023-03-21T04:24:23.356Z,955.21
2023-03-21T04:25:32.753Z,955.20
2023-03-21T04:26:23.382Z,955.20
2023-03-21T04:27:23.382Z,955.20
2023-03-21T04:28:23.419Z,955.19
2023-03-21T04:29:23.409Z,955.22
2023-03-21T04:30:23.441Z,955.16
2023-03-21T04:31:26.141Z,955.24
2023-03-21T04:32:23.476Z,955.18
2023-03-21T04:33:23.462Z,955.21
2023-03-21T04:34:23.482Z,955.19
2023-03-21T04:35:23.483Z,955.19
2023-03-21T04:36:23.511Z,955.18
2023-03-21T04:37:23.517Z,955.18
2023-03-21T04:38:23.510Z,955.16
2023-03-21T04:39:23.541Z,955.20
2023-03-21T04:40:23.540Z,955.17
2023-03-21T04:41:23.578Z,955.16
2023-03-21T04:42:23.561Z,955.13
2023-03-21T04:43:23.579Z,955.12
2023-03-21T04:44:23.596Z,955.11
2023-03-21T04:45:23.615Z,955.12
2023-03-21T04:46:23.656Z,955.14
2023-03-21T04:47:23.638Z,955.12
2023-03-21T04:48:23.655Z,955.16
2023-03-21T04:49:23.661Z,955.17
2023-03-21T04:50:23.671Z,955.17
2023-03-21T04:51:23.723Z,955.16
2023-03-21T04:52:25.314Z,955.15
2023-03-21T04:53:23.704Z,955.14
2023-03-21T04:54:23.717Z,955.14
2023-03-21T04:55:23.886Z,955.16
2023-03-21T04:56:23.765Z,955.14
2023-03-21T04:57:23.753Z,955.18
2023-03-21T04:58:23.767Z,955.16
2023-03-21T04:59:23.784Z,955.13
2023-03-21T05:00:23.793Z,955.14
2023-03-21T05:01:23.924Z,955.10
2023-03-21T05:02:23.850Z,955.09
2023-03-21T05:03:23.821Z,955.09
2023-03-21T05:04:23.897Z,955.06
2023-03-21T05:05:23.905Z,955.07
2023-03-21T05:06:23.878Z,955.06
2023-03-21T05:07:23.903Z,955.05
2023-03-21T05:08:23.906Z,955.10
2023-03-21T05:09:23.918Z,955.11
2023-03-21T05:10:23.933Z,955.08
2023-03-21T05:11:23.971Z,955.08
2023-03-21T05:12:23.964Z,955.10
2023-03-21T05:13:23.967Z,955.10
2023-03-21T05:14:24.019Z,955.11
2023-03-21T05:15:23.990Z,955.09
2023-03-21T05:16:24.093Z,955.08
2023-03-21T05:17:24.068Z,955.05
2023-03-21T05:18:24.071Z,955.07
2023-03-21T05:19:24.115Z,955.08
2023-03-21T05:20:24.083Z,955.09
2023-03-21T05:21:24.090Z,955.06
2023-03-21T05:22:24.097Z,955.07
2023-03-21T05:23:24.125Z,955.08
2023-03-21T05:24:24.106Z,955.11
2023-03-21T05:25:24.096Z,955.11
2023-03-21T05:26:24.142Z,955.09
2023-03-21T05:27:24.144Z,955.11
2023-03-21T05:28:24.132Z,955.10
2023-03-21T05:29:24.154Z,955.10
2023-03-21T05:30:24.137Z,955.11
2023-03-21T05:31:24.172Z,955.06
2023-03-21T05:32:24.165Z,955.11
2023-03-21T05:33:24.168Z,955.12
2023-03-21T05:34:24.198Z,955.10
2023-03-21T05:35:26.455Z,955.12
2023-03-21T05:36:24.202Z,955.15
2023-03-21T05:37:24.197Z,955.15
2023-03-21T05:38:24.212Z,955.16
2023-03-21T05:39:24.212Z,955.17
2023-03-21T05:40:25.453Z,955.17
2023-03-21T05:41:24.216Z,955.14
2023-03-21T05:42:24.241Z,955.14
2023-03-21T05:43:24.238Z,955.16
2023-03-21T05:44:24.255Z,955.16
2023-03-21T05:45:24.277Z,955.18
2023-03-21T05:46:24.313Z,955.20
2023-03-21T05:47:24.257Z,955.17
2023-03-21T05:48:24.277Z,955.21
2023-03-21T05:49:24.264Z,955.18
2023-03-21T05:50:24.283Z,955.22
2023-03-21T05:51:24.289Z,955.21
2023-03-21T05:52:24.315Z,955.20
2023-03-21T05:53:24.309Z,955.27
2023-03-21T05:54:24.324Z,955.24
2023-03-21T05:55:24.310Z,955.24
2023-03-21T05:56:24.321Z,955.25
2023-03-21T05:57:24.305Z,955.23
2023-03-21T05:58:24.344Z,955.20
2023-03-21T05:59:24.316Z,955.24
2023-03-21T06:00:24.336Z,955.21
2023-03-21T06:01:24.341Z,955.23
2023-03-21T06:02:24.433Z,955.21
2023-03-21T06:03:24.396Z,955.21
2023-03-21T06:04:24.357Z,955.23
2023-03-21T06:05:24.360Z,955.26
2023-03-21T06:06:24.362Z,955.24
2023-03-21T06:07:24.384Z,955.26
2023-03-21T06:08:24.384Z,955.23
2023-03-21T06:09:24.391Z,955.24
2023-03-21T06:10:24.394Z,955.26
2023-03-21T06:11:24.392Z,955.28
2023-03-21T06:12:24.440Z,955.26
2023-03-21T06:13:24.401Z,955.29
2023-03-21T06:14:24.408Z,955.28
2023-03-21T06:15:24.398Z,955.31
2023-03-21T06:16:24.471Z,955.28
2023-03-21T06:17:24.419Z,955.29
2023-03-21T06:18:24.459Z,955.32
2023-03-21T06:19:24.420Z,955.31
2023-03-21T06:20:24.431Z,955.32
2023-03-21T06:21:26.744Z,955.30
2023-03-21T06:22:24.444Z,955.33
2023-03-21T06:23:24.479Z,955.33
2023-03-21T06:24:24.475Z,955.35
2023-03-21T06:25:24.475Z,955.34
2023-03-21T06:26:24.504Z,955.36
2023-03-21T06:27:24.473Z,955.34
2023-03-21T06:28:24.482Z,955.36
2023-03-21T06:29:24.498Z,955.39
2023-03-21T06:30:24.527Z,955.34
2023-03-21T06:31:24.512Z,955.35
2023-03-21T06:32:24.525Z,955.35
2023-03-21T06:33:24.519Z,955.32
2023-03-21T06:34:24.519Z,955.33
2023-03-21T06:35:24.616Z,955.32
2023-03-21T06:36:24.580Z,955.36
2023-03-21T06:37:24.554Z,955.37
2023-03-21T06:38:24.550Z,955.38
2023-03-21T06:39:24.562Z,955.43
2023-03-21T06:40:24.580Z,955.43
2023-03-21T06:41:24.608Z,955.42
2023-03-21T06:42:31.449Z,955.41
2023-03-21T06:43:25.315Z,955.39
2023-03-21T06:44:24.641Z,955.43
2023-03-21T06:45:24.617Z,955.45
2023-03-21T06:46:24.719Z,955.45
2023-03-21T06:47:24.678Z,955.45
2023-03-21T06:48:24.840Z,955.45
2023-03-21T06:49:24.659Z,955.43
2023-03-21T06:50:24.660Z,955.44
2023-03-21T06:51:24.668Z,955.48
2023-03-21T06:52:24.697Z,955.46
2023-03-21T06:53:25.883Z,955.48
2023-03-21T06:54:24.680Z,955.44
2023-03-21T06:55:24.894Z,955.44
2023-03-21T06:56:24.967Z,955.42
2023-03-21T06:57:24.725Z,955.43
2023-03-21T06:58:24.739Z,955.45
2023-03-21T06:59:24.719Z,955.44
2023-03-21T07:00:25.017Z,955.46
2023-03-21T07:01:31.841Z,955.47
2023-03-21T07:02:24.803Z,955.46
2023-03-21T07:03:24.735Z,955.47
2023-03-21T07:04:24.747Z,955.44
2023-03-21T07:05:24.757Z,955.43
2023-03-21T07:06:24.782Z,955.47
2023-03-21T07:07:24.898Z,955.48
2023-03-21T07:08:24.763Z,955.44
2023-03-21T07:09:24.836Z,955.41
2023-03-21T07:10:26.010Z,955.39
2023-03-21T07:11:24.769Z,955.43
2023-03-21T07:12:24.766Z,955.42
2023-03-21T07:13:24.996Z,955.45
2023-03-21T07:14:25.474Z,955.40
2023-03-21T07:15:25.018Z,955.41
2023-03-21T07:16:26.135Z,955.41
2023-03-21T07:17:24.752Z,955.42
2023-03-21T07:18:24.760Z,955.46
2023-03-21T07:19:24.991Z,955.39
2023-03-21T07:20:24.739Z,955.36
2023-03-21T07:21:24.743Z,955.39
2023-03-21T07:22:28.761Z,955.39
2023-03-21T07:23:24.722Z,955.41
2023-03-21T07:24:24.725Z,955.39
2023-03-21T07:25:24.757Z,955.39
2023-03-21T07:26:24.717Z,955.43
2023-03-21T07:27:24.712Z,955.41
2023-03-21T07:28:25.932Z,955.49
2023-03-21T07:29:24.727Z,955.45
2023-03-21T07:30:24.960Z,955.44
2023-03-21T07:31:24.693Z,955.45
2023-03-21T07:32:24.694Z,955.44
2023-03-21T07:33:24.693Z,955.43
2023-03-21T07:34:27.923Z,955.44
2023-03-21T07:35:24.741Z,955.48
2023-03-21T07:36:24.682Z,955.46
2023-03-21T07:37:24.671Z,955.44
2023-03-21T07:38:24.681Z,955.43
2023-03-21T07:39:24.668Z,955.45
2023-03-21T07:40:27.919Z,955.42
2023-03-21T07:41:24.765Z,955.39
2023-03-21T07:42:24.673Z,955.46
2023-03-21T07:43:24.890Z,955.46
2023-03-21T07:44:24.669Z,955.43
2023-03-21T07:45:24.641Z,955.40
2023-03-21T07:46:24.770Z,955.44
2023-03-21T07:47:25.860Z,955.45
2023-03-21T07:48:24.602Z,955.44
2023-03-21T07:49:24.752Z,955.44
2023-03-21T07:50:24.597Z,955.44
2023-03-21T07:51:24.812Z,955.42
2023-03-21T07:52:34.085Z,955.40
2023-03-21T07:53:24.574Z,955.41
2023-03-21T07:54:24.543Z,955.45
2023-03-21T07:55:24.539Z,955.46
2023-03-21T07:56:24.530Z,955.45
2023-03-21T07:57:24.516Z,955.45
2023-03-21T07:58:27.729Z,955.40
2023-03-21T07:59:24.475Z,955.43
2023-03-21T08:00:24.468Z,955.41
2023-03-21T08:01:24.445Z,955.42
2023-03-21T08:02:24.564Z,955.40
2023-03-21T08:03:24.531Z,955.40
2023-03-21T08:04:24.432Z,955.38
2023-03-21T08:05:24.394Z,955.41
2023-03-21T08:06:24.391Z,955.37
2023-03-21T08:07:24.538Z,955.41
2023-03-21T08:08:24.393Z,955.39
2023-03-21T08:09:26.856Z,955.43
2023-03-21T08:10:24.322Z,955.40
2023-03-21T08:11:24.306Z,955.39
2023-03-21T08:12:30.545Z,955.39
2023-03-21T08:13:26.952Z,955.40
2023-03-21T08:14:24.258Z,955.41
2023-03-21T08:15:24.492Z,955.38
2023-03-21T08:16:24.482Z,955.39
2023-03-21T08:17:24.230Z,955.39
2023-03-21T08:18:24.219Z,955.46
2023-03-21T08:19:25.634Z,955.43
2023-03-21T08:20:25.490Z,955.43
2023-03-21T08:21:24.286Z,955.45
2023-03-21T08:22:24.166Z,955.46
2023-03-21T08:23:24.146Z,955.48
2023-03-21T08:24:24.119Z,955.43
2023-03-21T08:25:26.573Z,955.47
2023-03-21T08:26:24.083Z,955.44
2023-03-21T08:27:24.199Z,955.45
2023-03-21T08:28:24.063Z,955.47
2023-03-21T08:29:24.176Z,955.45
2023-03-21T08:30:24.500Z,955.46
2023-03-21T08:31:24.170Z,955.42
2023-03-21T08:32:24.248Z,955.43
2023-03-21T08:33:24.217Z,955.42
2023-03-21T08:34:24.035Z,955.44
2023-03-21T08:35:23.908Z,955.38
2023-03-21T08:36:24.205Z,955.33
2023-03-21T08:37:23.832Z,955.34
2023-03-21T08:38:23.836Z,955.30
2023-03-21T08:39:23.813Z,955.32
2023-03-21T08:40:23.795Z,955.31
2023-03-21T08:41:26.432Z,955.35
2023-03-21T08:42:23.746Z,955.32
2023-03-21T08:43:23.897Z,955.32
2023-03-21T08:44:23.741Z,955.32
2023-03-21T08:45:23.670Z,955.30
2023-03-21T08:46:23.684Z,955.30
2023-03-21T08:47:29.285Z,955.25
2023-03-21T08:48:23.662Z,955.27
2023-03-21T08:49:23.598Z,955.30
2023-03-21T08:50:23.544Z,955.27
2023-03-21T08:51:23.523Z,955.29
2023-03-21T08:52:23.500Z,955.27
2023-03-21T08:53:24.714Z,955.28
2023-03-21T08:54:23.450Z,955.27
2023-03-21T08:55:23.461Z,955.20
2023-03-21T08:56:23.607Z,955.20
2023-03-21T08:57:23.360Z,955.20
2023-03-21T08:58:23.494Z,955.21
2023-03-21T08:59:24.532Z,955.25
2023-03-21T09:00:23.264Z,955.24
2023-03-21T09:01:23.423Z,955.22
2023-03-21T09:02:23.214Z,955.23
2023-03-21T09:03:23.455Z,955.23
2023-03-21T09:04:23.215Z,955.24
2023-03-21T09:05:26.389Z,955.29
2023-03-21T09:06:23.106Z,955.25
2023-03-21T09:07:23.266Z,955.27
2023-03-21T09:08:23.070Z,955.27
2023-03-21T09:09:23.079Z,955.24
2023-03-21T09:10:23.291Z,955.21
2023-03-21T09:11:23.032Z,955.25
2023-03-21T09:12:23.033Z,955.24
2023-03-21T09:13:23.944Z,955.20
2023-03-21T09:14:28.450Z,955.25
2023-03-21T09:15:24.230Z,955.20
2023-03-21T09:16:22.919Z,955.18
2023-03-21T09:17:22.985Z,955.17
2023-03-21T09:18:22.802Z,955.16
2023-03-21T09:19:22.765Z,955.11
2023-03-21T09:20:22.776Z,955.15
2023-03-21T09:21:22.753Z,955.11
2023-03-21T09:22:22.931Z,955.04
2023-03-21T09:23:22.666Z,955.07
2023-03-21T09:24:22.653Z,955.09
2023-03-21T09:25:22.619Z,955.11
2023-03-21T09:26:23.792Z,955.07
2023-03-21T09:27:22.576Z,955.07
2023-03-21T09:28:22.517Z,955.04
2023-03-21T09:29:22.523Z,955.05
2023-03-21T09:30:25.520Z,955.05
2023-03-21T09:31:22.460Z,955.08
2023-03-21T09:32:22.426Z,955.07
2023-03-21T09:33:22.415Z,955.09
2023-03-21T09:34:22.375Z,955.07
2023-03-21T09:35:22.556Z,955.05
2023-03-21T09:36:22.553Z,955.06
2023-03-21T09:37:22.781Z,955.07
2023-03-21T09:38:25.486Z,955.07
2023-03-21T09:39:22.231Z,955.06
2023-03-21T09:40:22.826Z,955.04
2023-03-21T09:41:22.170Z,955.02
2023-03-21T09:42:22.135Z,955.01
2023-03-21T09:43:22.103Z,955.03
2023-03-21T09:44:24.516Z,955.00
2023-03-21T09:45:22.060Z,955.01
2023-03-21T09:46:22.376Z,955.00
2023-03-21T09:47:22.007Z,955.00
2023-03-21T09:48:22.021Z,954.98
2023-03-21T09:49:21.950Z,954.96
2023-03-21T09:50:27.223Z,954.96
2023-03-21T09:51:21.860Z,955.04
2023-03-21T09:52:21.828Z,954.99
2023-03-21T09:53:21.810Z,955.02
2023-03-21T09:54:21.780Z,955.00
2023-03-21T09:55:21.772Z,955.01
2023-03-21T09:56:21.720Z,955.02
2023-03-21T09:57:21.828Z,955.01
2023-03-21T09:58:21.864Z,955.03
2023-03-21T09:59:24.846Z,955.03
2023-03-21T10:00:21.550Z,955.01
2023-03-21T10:01:21.641Z,955.06
2023-03-21T10:02:21.483Z,955.05
2023-03-21T10:03:21.715Z,955.03
2023-03-21T10:04:21.681Z,955.05
2023-03-21T10:05:21.402Z,955.04
2023-03-21T10:06:25.062Z,954.97
2023-03-21T10:07:21.329Z,955.00
2023-03-21T10:08:21.875Z,954.98
2023-03-21T10:09:21.218Z,954.98
2023-03-21T10:10:21.223Z,954.97
2023-03-21T10:11:21.152Z,954.96
2023-03-21T10:12:21.120Z,954.96
2023-03-21T10:13:21.083Z,954.94
2023-03-21T10:14:21.053Z,954.94
2023-03-21T10:15:20.999Z,954.95
2023-03-21T10:16:21.192Z,954.94
2023-03-21T10:17:21.173Z,954.93
2023-03-21T10:18:20.860Z,954.94
2023-03-21T10:19:20.851Z,954.86
2023-03-21T10:20:20.825Z,954.86
2023-03-21T10:21:47.785Z,954.84
2023-03-21T10:22:21.451Z,954.86
2023-03-21T10:23:20.828Z,954.79
2023-03-21T10:24:20.596Z,954.78
2023-03-21T10:25:20.544Z,954.80
2023-03-21T10:26:21.471Z,954.79
2023-03-21T10:27:20.447Z,954.78
2023-03-21T10:28:20.412Z,954.73
2023-03-21T10:29:20.397Z,954.70
2023-03-21T10:30:20.350Z,954.71
2023-03-21T10:31:20.544Z,954.70
2023-03-21T10:32:21.844Z,954.69
2023-03-21T10:33:20.262Z,954.65
2023-03-21T10:34:20.131Z,954.68
2023-03-21T10:35:20.084Z,954.71
2023-03-21T10:36:20.929Z,954.65
2023-03-21T10:37:20.575Z,954.62
2023-03-21T10:38:27.834Z,954.67
2023-03-21T10:39:21.127Z,954.63
2023-03-21T10:40:20.045Z,954.62
2023-03-21T10:41:19.786Z,954.62
2023-03-21T10:42:19.715Z,954.61
2023-03-21T10:43:19.673Z,954.61
2023-03-21T10:44:22.836Z,954.62
2023-03-21T10:45:19.592Z,954.61
2023-03-21T10:46:19.616Z,954.60
2023-03-21T10:47:19.662Z,954.62
2023-03-21T10:48:19.505Z,954.61
2023-03-21T10:49:19.344Z,954.60
2023-03-21T10:50:19.350Z,954.55
2023-03-21T10:51:19.217Z,954.52
2023-03-21T10:52:19.173Z,954.54
2023-03-21T10:53:19.099Z,954.55
2023-03-21T10:54:19.049Z,954.56
2023-03-21T10:55:19.035Z,954.56
2023-03-21T10:56:18.915Z,954.56
2023-03-21T10:57:18.877Z,954.55
2023-03-21T10:58:18.946Z,954.51
2023-03-21T10:59:20.439Z,954.55
2023-03-21T11:00:18.816Z,954.50
2023-03-21T11:01:22.360Z,954.48
2023-03-21T11:02:25.239Z,954.49
2023-03-21T11:03:19.808Z,954.50
2023-03-21T11:04:18.513Z,954.44
2023-03-21T11:05:20.605Z,954.48
2023-03-21T11:06:18.626Z,954.46
2023-03-21T11:07:18.361Z,954.42
2023-03-21T11:08:18.317Z,954.40
2023-03-21T11:09:18.285Z,954.40
2023-03-21T11:10:28.145Z,954.41
2023-03-21T11:11:19.353Z,954.42
2023-03-21T11:12:19.629Z,954.39
2023-03-21T11:13:18.047Z,954.39
2023-03-21T11:14:18.116Z,954.42
2023-03-21T11:15:17.925Z,954.39
2023-03-21T11:16:17.873Z,954.43
2023-03-21T11:17:17.814Z,954.37
2023-03-21T11:18:17.750Z,954.34
2023-03-21T11:19:17.677Z,954.31
2023-03-21T11:20:17.638Z,954.29
2023-03-21T11:21:17.623Z,954.27
2023-03-21T11:22:17.606Z,954.30
2023-03-21T11:23:20.116Z,954.30
2023-03-21T11:24:17.357Z,954.31
2023-03-21T11:25:32.296Z,954.33
2023-03-21T11:26:17.271Z,954.31
2023-03-21T11:27:18.111Z,954.33
2023-03-21T11:28:17.110Z,954.29
2023-03-21T11:29:18.380Z,954.24
2023-03-21T11:30:21.033Z,954.20
2023-03-21T11:31:16.988Z,954.28
2023-03-21T11:32:16.819Z,954.19
2023-03-21T11:33:16.748Z,954.19
2023-03-21T11:34:16.726Z,954.18
2023-03-21T11:35:18.310Z,954.19
2023-03-21T11:36:16.677Z,954.13
2023-03-21T11:37:16.558Z,954.08
2023-03-21T11:38:16.450Z,954.00
2023-03-21T11:39:16.328Z,954.11
2023-03-21T11:40:16.302Z,954.11
2023-03-21T11:41:18.384Z,954.07
2023-03-21T11:42:16.060Z,954.01
2023-03-21T11:43:16.144Z,953.96
2023-03-21T11:44:16.123Z,953.93
2023-03-21T11:45:15.799Z,953.91
2023-03-21T11:46:15.757Z,953.92
2023-03-21T11:47:15.644Z,953.90
2023-03-21T11:48:15.604Z,953.84
2023-03-21T11:49:15.670Z,953.88
2023-03-21T11:50:15.427Z,953.89
2023-03-21T11:51:15.234Z,953.88
2023-03-21T11:52:15.131Z,953.78
2023-03-21T11:53:14.977Z,953.73
2023-03-21T11:54:15.517Z,953.73
2023-03-21T11:55:14.994Z,953.73
2023-03-21T11:56:14.896Z,953.71
2023-03-21T11:57:20.181Z,953.73
2023-03-21T11:58:15.138Z,953.68
2023-03-21T11:59:14.310Z,953.65
2023-03-21T12:00:14.169Z,953.65
2023-03-21T12:01:14.026Z,953.64
2023-03-21T12:02:13.991Z,953.56
2023-03-21T12:03:13.773Z,953.50
2023-03-21T12:04:13.704Z,953.47
2023-03-21T12:05:13.482Z,953.45
2023-03-21T12:06:13.342Z,953.37
2023-03-21T12:07:13.202Z,953.42
2023-03-21T12:08:13.204Z,953.41
2023-03-21T12:09:14.450Z,953.33
2023-03-21T12:10:12.836Z,953.34
2023-03-21T12:11:12.676Z,953.30
2023-03-21T12:12:12.538Z,953.25
2023-03-21T12:13:12.436Z,953.24
2023-03-21T12:14:13.485Z,953.25
2023-03-21T12:15:12.841Z,953.23
2023-03-21T12:16:12.042Z,953.22
2023-03-21T12:17:11.842Z,953.26
2023-03-21T12:18:12.033Z,953.22
2023-03-21T12:19:11.523Z,953.17
2023-03-21T12:20:11.377Z,953.18
2023-03-21T12:21:13.858Z,953.18
2023-03-21T12:22:11.335Z,953.22
2023-03-21T12:23:11.119Z,953.19
2023-03-21T12:24:10.670Z,953.19
2023-03-21T12:25:10.537Z,953.12
2023-03-21T12:26:10.365Z,953.12
2023-03-21T12:27:11.384Z,953.16
2023-03-21T12:28:10.008Z,953.17
2023-03-21T12:29:10.065Z,953.12
2023-03-21T12:30:10.068Z,953.08
2023-03-21T12:31:10.048Z,953.04
2023-03-21T12:32:09.337Z,953.05
2023-03-21T12:33:09.397Z,952.99
2023-03-21T12:34:08.989Z,953.01
2023-03-21T12:35:08.826Z,953.01
2023-03-21T12:36:08.673Z,952.97
2023-03-21T12:37:08.499Z,952.93
2023-03-21T12:38:08.317Z,952.98
2023-03-21T12:39:08.091Z,952.94
2023-03-21T12:40:07.899Z,952.93
2023-03-21T12:41:08.000Z,952.93
2023-03-21T12:42:07.689Z,952.92
2023-03-21T12:43:07.329Z,952.85
2023-03-21T12:44:07.170Z,952.86
2023-03-21T12:45:15.341Z,952.95
2023-03-21T12:46:08.151Z,952.89
2023-03-21T12:47:06.669Z,952.89
2023-03-21T12:48:06.406Z,952.91
2023-03-21T12:49:06.272Z,952.87
2023-03-21T12:50:06.185Z,952.85
2023-03-21T12:51:06.097Z,952.85
2023-03-21T12:52:05.619Z,952.84
2023-03-21T12:53:05.403Z,952.76
2023-03-21T12:54:05.220Z,952.72
2023-03-21T12:55:05.023Z,952.74
2023-03-21T12:56:04.823Z,952.72
2023-03-21T12:57:05.848Z,952.69
2023-03-21T12:58:04.586Z,952.70
2023-03-21T12:59:04.227Z,952.73
2023-03-21T13:00:04.268Z,952.62
2023-03-21T13:01:07.894Z,952.70